Time,TemperatureF,DewpointF,PressureIn,WindDirection,WindDirectionDegrees,WindSpeedMPH,WindSpeedGustMPH,Humidity,HourlyPrecipIn,Conditions,Clouds,dailyrainin,SoftwareType,DateUTC
2013-01-29 00:22:00,53.0,-99.9,-100.00,WSW,241,4.0,7.0,-999,-99.99,,,-99.99,,2013-01-29 06:22:00,
2013-01-29 00:40:00,56.0,-99.9,-100.00,West,268,3.0,5.0,-999,-99.99,,,-99.99,,2013-01-29 06:40:00,
2013-01-29 01:21:00,56.0,-99.9,-100.00,West,268,3.0,5.0,-999,-99.99,,,-99.99,,2013-01-29 07:21:00,
2013-01-29 01:32:00,56.0,-99.9,-100.00,West,268,3.0,5.0,-999,-99.99,,,-99.99,,2013-01-29 07:32:00,
2013-01-29 04:52:00,48.0,-99.9,-100.00,SSW,203,0.0,1.0,-999,-99.99,,,-99.99,,2013-01-29 10:52:00,
2013-01-29 05:00:00,48.0,-99.9,-100.00,WNW,289,3.0,6.0,-999,-99.99,,,-99.99,,2013-01-29 11:00:00,
2013-01-29 05:02:00,48.0,-99.9,-100.00,SSW,203,0.0,1.0,-999,-99.99,,,-99.99,,2013-01-29 11:02:00,
2013-01-29 05:32:00,48.0,-99.9,-100.00,WNW,289,3.0,6.0,-999,-99.99,,,-99.99,,2013-01-29 11:32:00,
2013-01-29 05:42:00,48.0,-99.9,-100.00,WNW,289,3.0,6.0,-999,-99.99,,,-99.99,,2013-01-29 11:42:00,
2013-01-29 05:53:00,48.0,-99.9,-100.00,WNW,289,3.0,6.0,-999,-99.99,,,-99.99,,2013-01-29 11:53:00,
2013-01-29 07:53:00,49.0,-99.9,-100.00,WNW,295,6.0,12.0,-999,-99.99,,,-99.99,,2013-01-29 13:53:00,
2013-01-29 08:02:00,49.0,-99.9,-100.00,WNW,295,6.0,12.0,-999,-99.99,,,-99.99,,2013-01-29 14:02:00,
2013-01-29 11:05:00,50.0,-99.9,-100.00,West,270,13.0,14.0,-999,-99.99,,,-99.99,,2013-01-29 17:05:00,
2013-01-29 11:53:00,50.0,-99.9,-100.00,West,270,13.0,14.0,-999,-99.99,,,-99.99,,2013-01-29 17:53:00,
2013-01-29 12:22:00,51.0,-99.9,-100.00,West,270,9.0,18.0,-999,-99.99,,,-99.99,,2013-01-29 18:22:00,
2013-01-29 12:34:00,51.0,-99.9,-100.00,West,270,9.0,18.0,-999,-99.99,,,-99.99,,2013-01-29 18:34:00,
2013-01-29 13:33:00,54.0,-99.9,-100.00,WSW,241,9.0,11.0,-999,-99.99,,,-99.99,,2013-01-29 19:33:00,
2013-01-29 13:42:00,54.0,-99.9,-100.00,WSW,241,9.0,11.0,-999,-99.99,,,-99.99,,2013-01-29 19:42:00,
2013-01-29 16:33:00,52.0,-99.9,-100.00,WSW,243,16.0,16.0,-999,-99.99,,,-99.99,,2013-01-29 22:33:00,
2013-01-29 16:43:00,52.0,-99.9,-100.00,WSW,243,16.0,16.0,-999,-99.99,,,-99.99,,2013-01-29 22:43:00,
2013-01-29 16:53:00,52.0,-99.9,-100.00,WSW,243,16.0,16.0,-999,-99.99,,,-99.99,,2013-01-29 22:53:00,
2013-01-29 17:33:00,50.0,-99.9,-100.00,WSW,251,15.0,17.0,-999,-99.99,,,-99.99,,2013-01-29 23:33:00,
2013-01-29 17:42:00,50.0,-99.9,-100.00,WSW,251,15.0,17.0,-999,-99.99,,,-99.99,,2013-01-29 23:42:00,
2013-01-29 19:20:00,46.0,-99.9,-100.00,West,265,9.0,13.0,-999,-99.99,,,-99.99,,2013-01-30 01:20:00,
2013-01-29 19:23:00,47.0,-99.9,-100.00,West,263,11.0,14.0,-999,-99.99,,,-99.99,,2013-01-30 01:23:00,
2013-01-29 19:32:00,47.0,-99.9,-100.00,West,263,11.0,14.0,-999,-99.99,,,-99.99,,2013-01-30 01:32:00,
2013-01-29 20:03:00,46.0,-99.9,-100.00,West,265,9.0,13.0,-999,-99.99,,,-99.99,,2013-01-30 02:03:00,
2013-01-29 20:13:00,46.0,-99.9,-100.00,West,265,9.0,13.0,-999,-99.99,,,-99.99,,2013-01-30 02:13:00,
2013-01-29 20:33:00,45.0,-99.9,-100.00,West,264,9.0,11.0,-999,-99.99,,,-99.99,,2013-01-30 02:33:00,
2013-01-29 20:42:00,45.0,-99.9,-100.00,West,264,9.0,11.0,-999,-99.99,,,-99.99,,2013-01-30 02:42:00,
2013-01-29 20:53:00,45.0,-99.9,-100.00,West,264,9.0,11.0,-999,-99.99,,,-99.99,,2013-01-30 02:53:00,